sensor_id;sensor_type;location;lat;lon;timestamp;P1;durP1;ratioP1;P2;durP2;ratioP2
19940;SDS011;10132;50.864;5.176;2022-08-21T00:00:22;6.10;;;2.63;;
19940;SDS011;10132;50.864;5.176;2022-08-21T00:02:27;4.60;;;2.50;;
19940;SDS011;10132;50.864;5.176;2022-08-21T00:04:29;7.53;;;2.40;;
19940;SDS011;10132;50.864;5.176;2022-08-21T00:06:33;3.40;;;2.30;;
19940;SDS011;10132;50.864;5.176;2022-08-21T00:08:35;3.87;;;2.20;;
19940;SDS011;10132;50.864;5.176;2022-08-21T00:10:38;3.93;;;2.60;;
19940;SDS011;10132;50.864;5.176;2022-08-21T00:12:41;5.33;;;2.53;;
19940;SDS011;10132;50.864;5.176;2022-08-21T00:14:43;6.40;;;2.70;;
19940;SDS011;10132;50.864;5.176;2022-08-21T00:16:45;5.10;;;2.50;;
19940;SDS011;10132;50.864;5.176;2022-08-21T00:18:48;4.60;;;2.37;;
19940;SDS011;10132;50.864;5.176;2022-08-21T00:20:50;3.87;;;2.73;;
19940;SDS011;10132;50.864;5.176;2022-08-21T00:22:54;6.23;;;2.60;;
19940;SDS011;10132;50.864;5.176;2022-08-21T00:24:56;4.00;;;2.20;;
19940;SDS011;10132;50.864;5.176;2022-08-21T00:26:59;5.77;;;2.60;;
19940;SDS011;10132;50.864;5.176;2022-08-21T00:29:01;5.60;;;2.77;;
19940;SDS011;10132;50.864;5.176;2022-08-21T00:31:04;9.13;;;2.77;;
19940;SDS011;10132;50.864;5.176;2022-08-21T00:33:07;6.03;;;2.83;;
19940;SDS011;10132;50.864;5.176;2022-08-21T00:35:11;6.60;;;2.70;;
19940;SDS011;10132;50.864;5.176;2022-08-21T00:37:14;3.97;;;2.57;;
19940;SDS011;10132;50.864;5.176;2022-08-21T00:39:18;4.00;;;2.33;;
19940;SDS011;10132;50.864;5.176;2022-08-21T00:41:20;7.33;;;2.70;;
19940;SDS011;10132;50.864;5.176;2022-08-21T00:43:24;4.80;;;2.40;;
19940;SDS011;10132;50.864;5.176;2022-08-21T00:45:27;9.33;;;3.20;;
19940;SDS011;10132;50.864;5.176;2022-08-21T00:47:30;6.97;;;2.83;;
19940;SDS011;10132;50.864;5.176;2022-08-21T00:49:32;5.20;;;2.40;;
19940;SDS011;10132;50.864;5.176;2022-08-21T00:51:35;6.27;;;2.60;;
19940;SDS011;10132;50.864;5.176;2022-08-21T00:53:40;4.90;;;2.37;;
19940;SDS011;10132;50.864;5.176;2022-08-21T00:55:47;8.07;;;2.90;;
19940;SDS011;10132;50.864;5.176;2022-08-21T00:57:51;4.53;;;2.53;;
19940;SDS011;10132;50.864;5.176;2022-08-21T00:59:56;5.53;;;2.40;;
19940;SDS011;10132;50.864;5.176;2022-08-21T01:02:01;3.07;;;2.13;;
19940;SDS011;10132;50.864;5.176;2022-08-21T01:04:05;6.83;;;2.30;;
19940;SDS011;10132;50.864;5.176;2022-08-21T01:06:07;6.30;;;2.90;;
19940;SDS011;10132;50.864;5.176;2022-08-21T01:08:10;4.17;;;2.33;;
19940;SDS011;10132;50.864;5.176;2022-08-21T01:10:15;3.90;;;2.30;;
19940;SDS011;10132;50.864;5.176;2022-08-21T01:12:20;6.67;;;2.70;;
19940;SDS011;10132;50.864;5.176;2022-08-21T01:14:23;4.37;;;2.43;;
19940;SDS011;10132;50.864;5.176;2022-08-21T01:16:25;6.43;;;3.00;;
19940;SDS011;10132;50.864;5.176;2022-08-21T01:18:27;6.67;;;2.50;;
19940;SDS011;10132;50.864;5.176;2022-08-21T01:20:29;10.33;;;3.00;;
19940;SDS011;10132;50.864;5.176;2022-08-21T01:22:33;5.53;;;2.60;;
19940;SDS011;10132;50.864;5.176;2022-08-21T01:24:35;5.00;;;2.73;;
19940;SDS011;10132;50.864;5.176;2022-08-21T01:26:37;5.30;;;2.70;;
19940;SDS011;10132;50.864;5.176;2022-08-21T01:28:40;6.33;;;2.80;;
19940;SDS011;10132;50.864;5.176;2022-08-21T01:30:47;4.47;;;2.60;;
19940;SDS011;10132;50.864;5.176;2022-08-21T01:32:52;5.63;;;2.83;;
19940;SDS011;10132;50.864;5.176;2022-08-21T01:34:55;8.07;;;3.03;;
19940;SDS011;10132;50.864;5.176;2022-08-21T01:36:57;5.43;;;2.60;;
19940;SDS011;10132;50.864;5.176;2022-08-21T01:39:00;4.53;;;2.43;;
19940;SDS011;10132;50.864;5.176;2022-08-21T01:41:04;6.53;;;2.63;;
19940;SDS011;10132;50.864;5.176;2022-08-21T01:43:06;6.40;;;3.10;;
19940;SDS011;10132;50.864;5.176;2022-08-21T01:45:09;5.87;;;2.70;;
19940;SDS011;10132;50.864;5.176;2022-08-21T01:47:12;7.37;;;2.70;;
19940;SDS011;10132;50.864;5.176;2022-08-21T01:49:16;8.77;;;2.73;;
19940;SDS011;10132;50.864;5.176;2022-08-21T01:51:18;5.00;;;2.97;;
19940;SDS011;10132;50.864;5.176;2022-08-21T01:53:20;5.97;;;2.83;;
19940;SDS011;10132;50.864;5.176;2022-08-21T01:55:24;6.17;;;2.80;;
19940;SDS011;10132;50.864;5.176;2022-08-21T01:57:27;6.40;;;3.00;;
19940;SDS011;10132;50.864;5.176;2022-08-21T01:59:30;7.60;;;2.97;;
19940;SDS011;10132;50.864;5.176;2022-08-21T02:01:32;5.40;;;2.80;;
19940;SDS011;10132;50.864;5.176;2022-08-21T02:03:34;6.17;;;2.80;;
19940;SDS011;10132;50.864;5.176;2022-08-21T02:05:36;5.43;;;2.77;;
19940;SDS011;10132;50.864;5.176;2022-08-21T02:07:39;5.67;;;2.80;;
19940;SDS011;10132;50.864;5.176;2022-08-21T02:09:43;7.50;;;3.27;;
19940;SDS011;10132;50.864;5.176;2022-08-21T02:11:46;10.13;;;2.97;;
19940;SDS011;10132;50.864;5.176;2022-08-21T02:13:49;5.67;;;2.47;;
19940;SDS011;10132;50.864;5.176;2022-08-21T02:15:51;5.57;;;2.87;;
19940;SDS011;10132;50.864;5.176;2022-08-21T02:17:54;10.90;;;3.10;;
19940;SDS011;10132;50.864;5.176;2022-08-21T02:19:59;6.67;;;3.10;;
19940;SDS011;10132;50.864;5.176;2022-08-21T02:22:01;4.70;;;2.60;;
19940;SDS011;10132;50.864;5.176;2022-08-21T02:24:03;7.87;;;3.10;;
19940;SDS011;10132;50.864;5.176;2022-08-21T02:26:06;4.23;;;2.90;;
19940;SDS011;10132;50.864;5.176;2022-08-21T02:28:11;6.43;;;3.00;;
19940;SDS011;10132;50.864;5.176;2022-08-21T02:30:16;7.30;;;3.13;;
19940;SDS011;10132;50.864;5.176;2022-08-21T02:32:20;7.43;;;2.83;;
19940;SDS011;10132;50.864;5.176;2022-08-21T02:34:22;7.23;;;2.80;;
19940;SDS011;10132;50.864;5.176;2022-08-21T02:36:24;5.13;;;2.63;;
19940;SDS011;10132;50.864;5.176;2022-08-21T02:38:27;5.93;;;2.70;;
19940;SDS011;10132;50.864;5.176;2022-08-21T02:40:35;7.30;;;2.80;;
19940;SDS011;10132;50.864;5.176;2022-08-21T02:42:39;10.63;;;3.20;;
19940;SDS011;10132;50.864;5.176;2022-08-21T02:44:43;5.33;;;2.80;;
19940;SDS011;10132;50.864;5.176;2022-08-21T02:46:45;7.77;;;2.67;;
19940;SDS011;10132;50.864;5.176;2022-08-21T02:48:47;7.40;;;2.90;;
19940;SDS011;10132;50.864;5.176;2022-08-21T02:50:51;6.57;;;2.90;;
19940;SDS011;10132;50.864;5.176;2022-08-21T02:52:54;7.27;;;2.70;;
19940;SDS011;10132;50.864;5.176;2022-08-21T02:54:57;5.93;;;2.73;;
19940;SDS011;10132;50.864;5.176;2022-08-21T02:56:59;6.20;;;2.70;;
19940;SDS011;10132;50.864;5.176;2022-08-21T02:59:01;8.03;;;3.13;;
19940;SDS011;10132;50.864;5.176;2022-08-21T03:01:05;8.47;;;2.77;;
19940;SDS011;10132;50.864;5.176;2022-08-21T03:03:09;8.73;;;2.90;;
19940;SDS011;10132;50.864;5.176;2022-08-21T03:05:12;6.47;;;2.90;;
19940;SDS011;10132;50.864;5.176;2022-08-21T03:07:15;8.73;;;3.13;;
19940;SDS011;10132;50.864;5.176;2022-08-21T03:09:18;6.17;;;2.90;;
19940;SDS011;10132;50.864;5.176;2022-08-21T03:11:20;6.93;;;2.90;;
19940;SDS011;10132;50.864;5.176;2022-08-21T03:13:22;4.93;;;2.90;;
19940;SDS011;10132;50.864;5.176;2022-08-21T03:15:24;5.73;;;2.67;;
19940;SDS011;10132;50.864;5.176;2022-08-21T03:17:28;5.87;;;2.97;;
19940;SDS011;10132;50.864;5.176;2022-08-21T03:19:30;6.20;;;2.83;;
19940;SDS011;10132;50.864;5.176;2022-08-21T03:21:32;6.77;;;2.97;;
19940;SDS011;10132;50.864;5.176;2022-08-21T03:23:34;5.07;;;2.77;;
19940;SDS011;10132;50.864;5.176;2022-08-21T03:25:37;7.00;;;2.70;;
19940;SDS011;10132;50.864;5.176;2022-08-21T03:27:40;7.03;;;2.77;;
19940;SDS011;10132;50.864;5.176;2022-08-21T03:29:42;9.10;;;2.60;;
19940;SDS011;10132;50.864;5.176;2022-08-21T03:31:44;9.93;;;2.70;;
19940;SDS011;10132;50.864;5.176;2022-08-21T03:33:48;6.37;;;2.57;;
19940;SDS011;10132;50.864;5.176;2022-08-21T03:35:56;3.93;;;2.30;;
19940;SDS011;10132;50.864;5.176;2022-08-21T03:38:00;8.53;;;2.90;;
19940;SDS011;10132;50.864;5.176;2022-08-21T03:40:03;9.17;;;2.77;;
19940;SDS011;10132;50.864;5.176;2022-08-21T03:42:06;7.73;;;2.67;;
19940;SDS011;10132;50.864;5.176;2022-08-21T03:44:07;5.20;;;2.60;;
19940;SDS011;10132;50.864;5.176;2022-08-21T03:46:11;7.40;;;2.60;;
19940;SDS011;10132;50.864;5.176;2022-08-21T03:48:13;5.00;;;2.90;;
19940;SDS011;10132;50.864;5.176;2022-08-21T03:50:17;7.30;;;2.80;;
19940;SDS011;10132;50.864;5.176;2022-08-21T03:52:21;6.43;;;2.57;;
19940;SDS011;10132;50.864;5.176;2022-08-21T03:54:24;6.20;;;2.73;;
19940;SDS011;10132;50.864;5.176;2022-08-21T03:56:26;5.47;;;2.50;;
19940;SDS011;10132;50.864;5.176;2022-08-21T03:58:28;7.33;;;2.33;;
19940;SDS011;10132;50.864;5.176;2022-08-21T04:00:31;6.30;;;2.50;;
19940;SDS011;10132;50.864;5.176;2022-08-21T04:02:33;8.17;;;2.57;;
19940;SDS011;10132;50.864;5.176;2022-08-21T04:04:36;5.70;;;2.30;;
19940;SDS011;10132;50.864;5.176;2022-08-21T04:06:41;8.87;;;2.57;;
19940;SDS011;10132;50.864;5.176;2022-08-21T04:08:43;5.43;;;2.83;;
19940;SDS011;10132;50.864;5.176;2022-08-21T04:10:46;6.40;;;2.73;;
19940;SDS011;10132;50.864;5.176;2022-08-21T04:12:51;7.37;;;2.80;;
19940;SDS011;10132;50.864;5.176;2022-08-21T04:14:54;6.30;;;2.60;;
19940;SDS011;10132;50.864;5.176;2022-08-21T04:16:56;7.93;;;2.40;;
19940;SDS011;10132;50.864;5.176;2022-08-21T04:18:58;9.47;;;2.63;;
19940;SDS011;10132;50.864;5.176;2022-08-21T04:21:01;8.27;;;2.50;;
19940;SDS011;10132;50.864;5.176;2022-08-21T04:23:06;4.90;;;2.23;;
19940;SDS011;10132;50.864;5.176;2022-08-21T04:25:08;6.30;;;2.30;;
19940;SDS011;10132;50.864;5.176;2022-08-21T04:27:10;3.87;;;2.20;;
19940;SDS011;10132;50.864;5.176;2022-08-21T04:29:12;6.03;;;2.40;;
19940;SDS011;10132;50.864;5.176;2022-08-21T04:31:14;6.27;;;2.33;;
19940;SDS011;10132;50.864;5.176;2022-08-21T04:33:17;9.77;;;2.70;;
19940;SDS011;10132;50.864;5.176;2022-08-21T04:35:20;5.70;;;2.20;;
19940;SDS011;10132;50.864;5.176;2022-08-21T04:37:23;9.07;;;2.90;;
19940;SDS011;10132;50.864;5.176;2022-08-21T04:39:27;7.80;;;2.50;;
19940;SDS011;10132;50.864;5.176;2022-08-21T04:41:29;9.13;;;2.90;;
19940;SDS011;10132;50.864;5.176;2022-08-21T04:43:31;5.87;;;2.50;;
19940;SDS011;10132;50.864;5.176;2022-08-21T04:45:34;4.93;;;2.27;;
19940;SDS011;10132;50.864;5.176;2022-08-21T04:47:37;4.80;;;2.60;;
19940;SDS011;10132;50.864;5.176;2022-08-21T04:49:39;6.13;;;2.50;;
19940;SDS011;10132;50.864;5.176;2022-08-21T04:51:42;6.33;;;2.07;;
19940;SDS011;10132;50.864;5.176;2022-08-21T04:53:45;9.70;;;2.60;;
19940;SDS011;10132;50.864;5.176;2022-08-21T04:55:51;5.90;;;2.10;;
19940;SDS011;10132;50.864;5.176;2022-08-21T04:57:55;6.50;;;1.90;;
19940;SDS011;10132;50.864;5.176;2022-08-21T04:59:58;5.53;;;2.30;;
19940;SDS011;10132;50.864;5.176;2022-08-21T05:02:03;4.97;;;2.23;;
19940;SDS011;10132;50.864;5.176;2022-08-21T05:04:08;3.57;;;1.90;;
19940;SDS011;10132;50.864;5.176;2022-08-21T05:06:13;4.67;;;2.07;;
19940;SDS011;10132;50.864;5.176;2022-08-21T05:08:19;4.93;;;2.23;;
19940;SDS011;10132;50.864;5.176;2022-08-21T05:10:24;5.90;;;2.40;;
19940;SDS011;10132;50.864;5.176;2022-08-21T05:12:28;5.23;;;2.07;;
19940;SDS011;10132;50.864;5.176;2022-08-21T05:14:32;5.13;;;2.30;;
19940;SDS011;10132;50.864;5.176;2022-08-21T05:16:34;6.97;;;2.40;;
19940;SDS011;10132;50.864;5.176;2022-08-21T05:18:36;5.67;;;2.47;;
19940;SDS011;10132;50.864;5.176;2022-08-21T05:20:38;4.77;;;1.93;;
19940;SDS011;10132;50.864;5.176;2022-08-21T05:22:41;4.17;;;2.10;;
19940;SDS011;10132;50.864;5.176;2022-08-21T05:24:43;5.27;;;2.60;;
19940;SDS011;10132;50.864;5.176;2022-08-21T05:26:45;5.67;;;2.20;;
19940;SDS011;10132;50.864;5.176;2022-08-21T05:28:48;4.70;;;2.40;;
19940;SDS011;10132;50.864;5.176;2022-08-21T05:30:50;6.80;;;2.40;;
19940;SDS011;10132;50.864;5.176;2022-08-21T05:32:55;6.07;;;2.23;;
19940;SDS011;10132;50.864;5.176;2022-08-21T05:34:58;5.27;;;2.40;;
19940;SDS011;10132;50.864;5.176;2022-08-21T05:37:00;4.50;;;2.40;;
19940;SDS011;10132;50.864;5.176;2022-08-21T05:39:02;5.83;;;2.33;;
19940;SDS011;10132;50.864;5.176;2022-08-21T05:41:04;6.60;;;2.70;;
19940;SDS011;10132;50.864;5.176;2022-08-21T05:43:07;5.23;;;2.17;;
19940;SDS011;10132;50.864;5.176;2022-08-21T05:45:11;6.87;;;2.70;;
19940;SDS011;10132;50.864;5.176;2022-08-21T05:47:13;7.07;;;2.47;;
19940;SDS011;10132;50.864;5.176;2022-08-21T05:49:15;7.27;;;2.37;;
19940;SDS011;10132;50.864;5.176;2022-08-21T05:51:17;5.90;;;2.70;;
19940;SDS011;10132;50.864;5.176;2022-08-21T05:53:20;5.07;;;2.50;;
19940;SDS011;10132;50.864;5.176;2022-08-21T05:55:25;7.53;;;2.73;;
19940;SDS011;10132;50.864;5.176;2022-08-21T05:57:28;5.33;;;2.60;;
19940;SDS011;10132;50.864;5.176;2022-08-21T05:59:30;6.77;;;2.70;;
19940;SDS011;10132;50.864;5.176;2022-08-21T06:01:33;7.90;;;2.47;;
19940;SDS011;10132;50.864;5.176;2022-08-21T06:03:37;5.07;;;2.40;;
19940;SDS011;10132;50.864;5.176;2022-08-21T06:05:40;8.73;;;2.60;;
19940;SDS011;10132;50.864;5.176;2022-08-21T06:07:43;7.00;;;2.73;;
19940;SDS011;10132;50.864;5.176;2022-08-21T06:09:45;9.50;;;2.93;;
19940;SDS011;10132;50.864;5.176;2022-08-21T06:11:47;6.07;;;2.70;;
19940;SDS011;10132;50.864;5.176;2022-08-21T06:13:49;8.40;;;2.83;;
19940;SDS011;10132;50.864;5.176;2022-08-21T06:16:00;6.97;;;2.90;;
19940;SDS011;10132;50.864;5.176;2022-08-21T06:18:05;7.33;;;2.50;;
19940;SDS011;10132;50.864;5.176;2022-08-21T06:20:07;6.43;;;2.70;;
19940;SDS011;10132;50.864;5.176;2022-08-21T06:22:10;9.73;;;3.20;;
19940;SDS011;10132;50.864;5.176;2022-08-21T06:24:12;9.43;;;3.73;;
19940;SDS011;10132;50.864;5.176;2022-08-21T06:26:14;6.50;;;3.00;;
19940;SDS011;10132;50.864;5.176;2022-08-21T06:28:16;6.67;;;2.93;;
19940;SDS011;10132;50.864;5.176;2022-08-21T06:30:19;6.77;;;2.80;;
19940;SDS011;10132;50.864;5.176;2022-08-21T06:32:21;6.30;;;2.80;;
19940;SDS011;10132;50.864;5.176;2022-08-21T06:34:24;8.87;;;3.77;;
19940;SDS011;10132;50.864;5.176;2022-08-21T06:36:26;8.37;;;3.37;;
19940;SDS011;10132;50.864;5.176;2022-08-21T06:38:29;9.70;;;3.70;;
19940;SDS011;10132;50.864;5.176;2022-08-21T06:40:32;9.90;;;3.50;;
19940;SDS011;10132;50.864;5.176;2022-08-21T06:42:34;10.40;;;3.63;;
19940;SDS011;10132;50.864;5.176;2022-08-21T06:44:36;8.07;;;3.50;;
19940;SDS011;10132;50.864;5.176;2022-08-21T06:46:38;8.73;;;3.27;;
19940;SDS011;10132;50.864;5.176;2022-08-21T06:48:40;8.63;;;3.47;;
19940;SDS011;10132;50.864;5.176;2022-08-21T06:50:44;9.43;;;3.70;;
19940;SDS011;10132;50.864;5.176;2022-08-21T06:52:46;8.43;;;3.43;;
19940;SDS011;10132;50.864;5.176;2022-08-21T06:54:49;8.47;;;3.47;;
19940;SDS011;10132;50.864;5.176;2022-08-21T06:56:51;7.47;;;3.60;;
19940;SDS011;10132;50.864;5.176;2022-08-21T06:58:53;5.70;;;3.27;;
19940;SDS011;10132;50.864;5.176;2022-08-21T07:00:56;8.17;;;3.30;;
19940;SDS011;10132;50.864;5.176;2022-08-21T07:02:58;11.90;;;3.97;;
19940;SDS011;10132;50.864;5.176;2022-08-21T07:05:00;8.57;;;3.43;;
19940;SDS011;10132;50.864;5.176;2022-08-21T07:07:04;9.00;;;3.10;;
19940;SDS011;10132;50.864;5.176;2022-08-21T07:09:06;9.93;;;3.83;;
19940;SDS011;10132;50.864;5.176;2022-08-21T07:11:11;8.40;;;3.20;;
19940;SDS011;10132;50.864;5.176;2022-08-21T07:13:15;10.27;;;3.38;;
19940;SDS011;10132;50.864;5.176;2022-08-21T07:15:17;8.27;;;3.30;;
19940;SDS011;10132;50.864;5.176;2022-08-21T07:17:20;9.87;;;3.13;;
19940;SDS011;10132;50.864;5.176;2022-08-21T07:19:22;7.82;;;3.00;;
19940;SDS011;10132;50.864;5.176;2022-08-21T07:21:24;8.40;;;2.50;;
19940;SDS011;10132;50.864;5.176;2022-08-21T07:23:30;8.23;;;3.15;;
19940;SDS011;10132;50.864;5.176;2022-08-21T07:25:34;9.23;;;2.70;;
19940;SDS011;10132;50.864;5.176;2022-08-21T07:27:37;11.52;;;3.17;;
19940;SDS011;10132;50.864;5.176;2022-08-21T07:29:39;7.95;;;3.25;;
19940;SDS011;10132;50.864;5.176;2022-08-21T07:31:41;6.95;;;2.50;;
19940;SDS011;10132;50.864;5.176;2022-08-21T07:33:43;6.82;;;2.90;;
19940;SDS011;10132;50.864;5.176;2022-08-21T07:35:47;7.05;;;2.83;;
19940;SDS011;10132;50.864;5.176;2022-08-21T07:37:49;7.40;;;2.97;;
19940;SDS011;10132;50.864;5.176;2022-08-21T07:39:53;12.77;;;2.97;;
19940;SDS011;10132;50.864;5.176;2022-08-21T07:41:54;9.23;;;2.85;;
19940;SDS011;10132;50.864;5.176;2022-08-21T07:43:57;9.98;;;3.17;;
19940;SDS011;10132;50.864;5.176;2022-08-21T07:46:00;8.52;;;3.03;;
19940;SDS011;10132;50.864;5.176;2022-08-21T07:48:02;9.13;;;2.90;;
19940;SDS011;10132;50.864;5.176;2022-08-21T07:50:05;7.72;;;3.00;;
19940;SDS011;10132;50.864;5.176;2022-08-21T07:52:08;10.68;;;3.22;;
19940;SDS011;10132;50.864;5.176;2022-08-21T07:54:10;8.52;;;2.92;;
19940;SDS011;10132;50.864;5.176;2022-08-21T07:56:13;10.55;;;2.97;;
19940;SDS011;10132;50.864;5.176;2022-08-21T07:58:15;7.00;;;2.67;;
19940;SDS011;10132;50.864;5.176;2022-08-21T08:00:19;6.13;;;2.60;;
19940;SDS011;10132;50.864;5.176;2022-08-21T08:02:23;6.88;;;2.30;;
19940;SDS011;10132;50.864;5.176;2022-08-21T08:04:27;6.00;;;2.17;;
19940;SDS011;10132;50.864;5.176;2022-08-21T08:06:29;8.30;;;2.55;;
19940;SDS011;10132;50.864;5.176;2022-08-21T08:08:31;5.32;;;2.63;;
19940;SDS011;10132;50.864;5.176;2022-08-21T08:10:33;6.63;;;2.25;;
19940;SDS011;10132;50.864;5.176;2022-08-21T08:12:38;6.88;;;2.00;;
19940;SDS011;10132;50.864;5.176;2022-08-21T08:14:41;7.22;;;2.10;;
19940;SDS011;10132;50.864;5.176;2022-08-21T08:16:43;8.07;;;2.25;;
19940;SDS011;10132;50.864;5.176;2022-08-21T08:18:45;6.72;;;2.08;;
19940;SDS011;10132;50.864;5.176;2022-08-21T08:20:47;9.57;;;2.20;;
19940;SDS011;10132;50.864;5.176;2022-08-21T08:22:50;6.78;;;2.17;;
19940;SDS011;10132;50.864;5.176;2022-08-21T08:24:52;7.05;;;2.42;;
19940;SDS011;10132;50.864;5.176;2022-08-21T08:26:55;8.75;;;2.00;;
19940;SDS011;10132;50.864;5.176;2022-08-21T08:28:59;8.38;;;1.90;;
19940;SDS011;10132;50.864;5.176;2022-08-21T08:31:01;6.07;;;2.38;;
19940;SDS011;10132;50.864;5.176;2022-08-21T08:33:03;7.38;;;2.20;;
19940;SDS011;10132;50.864;5.176;2022-08-21T08:35:06;5.47;;;1.90;;
19940;SDS011;10132;50.864;5.176;2022-08-21T08:37:09;7.03;;;2.15;;
19940;SDS011;10132;50.864;5.176;2022-08-21T08:39:11;5.65;;;1.70;;
19940;SDS011;10132;50.864;5.176;2022-08-21T08:41:16;6.20;;;2.08;;
19940;SDS011;10132;50.864;5.176;2022-08-21T08:43:22;7.07;;;2.38;;
19940;SDS011;10132;50.864;5.176;2022-08-21T08:45:26;5.45;;;1.98;;
19940;SDS011;10132;50.864;5.176;2022-08-21T08:47:32;5.43;;;2.30;;
19940;SDS011;10132;50.864;5.176;2022-08-21T08:49:38;3.08;;;1.40;;
19940;SDS011;10132;50.864;5.176;2022-08-21T08:51:44;8.18;;;2.25;;
19940;SDS011;10132;50.864;5.176;2022-08-21T08:53:51;7.07;;;2.45;;
19940;SDS011;10132;50.864;5.176;2022-08-21T08:55:55;7.53;;;2.25;;
19940;SDS011;10132;50.864;5.176;2022-08-21T08:57:58;5.03;;;1.48;;
19940;SDS011;10132;50.864;5.176;2022-08-21T09:00:04;5.72;;;1.60;;
19940;SDS011;10132;50.864;5.176;2022-08-21T09:02:12;4.97;;;1.65;;
19940;SDS011;10132;50.864;5.176;2022-08-21T09:04:16;4.97;;;1.70;;
19940;SDS011;10132;50.864;5.176;2022-08-21T09:06:35;4.22;;;1.52;;
19940;SDS011;10132;50.864;5.176;2022-08-21T09:08:46;7.38;;;1.73;;
19940;SDS011;10132;50.864;5.176;2022-08-21T09:11:00;6.32;;;1.50;;
19940;SDS011;10132;50.864;5.176;2022-08-21T09:13:06;5.43;;;1.65;;
19940;SDS011;10132;50.864;5.176;2022-08-21T09:15:18;5.25;;;1.70;;
19940;SDS011;10132;50.864;5.176;2022-08-21T09:17:32;6.03;;;1.50;;
19940;SDS011;10132;50.864;5.176;2022-08-21T09:19:51;4.88;;;1.50;;
19940;SDS011;10132;50.864;5.176;2022-08-21T09:22:06;3.90;;;1.25;;
19940;SDS011;10132;50.864;5.176;2022-08-21T09:24:22;5.25;;;1.25;;
19940;SDS011;10132;50.864;5.176;2022-08-21T09:26:31;5.75;;;1.50;;
19940;SDS011;10132;50.864;5.176;2022-08-21T09:28:42;4.70;;;1.50;;
19940;SDS011;10132;50.864;5.176;2022-08-21T09:30:44;4.43;;;1.50;;
19940;SDS011;10132;50.864;5.176;2022-08-21T09:32:50;6.13;;;1.92;;
19940;SDS011;10132;50.864;5.176;2022-08-21T09:34:59;6.25;;;1.73;;
19940;SDS011;10132;50.864;5.176;2022-08-21T09:37:02;4.85;;;1.50;;
19940;SDS011;10132;50.864;5.176;2022-08-21T09:39:05;5.85;;;1.60;;
19940;SDS011;10132;50.864;5.176;2022-08-21T09:41:09;6.35;;;1.98;;
19940;SDS011;10132;50.864;5.176;2022-08-21T09:43:16;8.77;;;1.73;;
19940;SDS011;10132;50.864;5.176;2022-08-21T09:45:19;6.68;;;2.15;;
19940;SDS011;10132;50.864;5.176;2022-08-21T09:47:25;6.68;;;2.03;;
19940;SDS011;10132;50.864;5.176;2022-08-21T09:49:29;6.75;;;1.60;;
19940;SDS011;10132;50.864;5.176;2022-08-21T09:51:34;5.22;;;1.67;;
19940;SDS011;10132;50.864;5.176;2022-08-21T09:53:38;5.90;;;1.65;;
19940;SDS011;10132;50.864;5.176;2022-08-21T09:55:48;3.15;;;1.33;;
19940;SDS011;10132;50.864;5.176;2022-08-21T09:58:11;3.65;;;1.48;;
19940;SDS011;10132;50.864;5.176;2022-08-21T10:00:15;5.43;;;1.58;;
19940;SDS011;10132;50.864;5.176;2022-08-21T10:02:26;7.10;;;1.90;;
19940;SDS011;10132;50.864;5.176;2022-08-21T10:04:33;6.97;;;1.83;;
19940;SDS011;10132;50.864;5.176;2022-08-21T10:06:37;6.25;;;1.70;;
19940;SDS011;10132;50.864;5.176;2022-08-21T10:08:42;4.20;;;1.75;;
19940;SDS011;10132;50.864;5.176;2022-08-21T10:10:44;4.97;;;1.70;;
19940;SDS011;10132;50.864;5.176;2022-08-21T10:12:48;7.95;;;2.22;;
19940;SDS011;10132;50.864;5.176;2022-08-21T10:15:00;6.22;;;1.63;;
19940;SDS011;10132;50.864;5.176;2022-08-21T10:17:12;6.07;;;1.70;;
19940;SDS011;10132;50.864;5.176;2022-08-21T10:19:20;5.53;;;1.95;;
19940;SDS011;10132;50.864;5.176;2022-08-21T10:21:30;5.47;;;1.58;;
19940;SDS011;10132;50.864;5.176;2022-08-21T10:23:41;4.88;;;1.73;;
19940;SDS011;10132;50.864;5.176;2022-08-21T10:25:50;7.78;;;1.95;;
19940;SDS011;10132;50.864;5.176;2022-08-21T10:27:59;6.03;;;1.85;;
19940;SDS011;10132;50.864;5.176;2022-08-21T10:30:07;7.78;;;1.60;;
19940;SDS011;10132;50.864;5.176;2022-08-21T10:32:14;4.88;;;1.80;;
19940;SDS011;10132;50.864;5.176;2022-08-21T10:34:32;4.90;;;1.80;;
19940;SDS011;10132;50.864;5.176;2022-08-21T10:36:46;5.95;;;1.98;;
19940;SDS011;10132;50.864;5.176;2022-08-21T10:39:06;5.40;;;1.70;;
19940;SDS011;10132;50.864;5.176;2022-08-21T10:41:20;5.43;;;1.60;;
19940;SDS011;10132;50.864;5.176;2022-08-21T10:43:32;7.60;;;1.92;;
19940;SDS011;10132;50.864;5.176;2022-08-21T10:45:46;6.03;;;1.83;;
19940;SDS011;10132;50.864;5.176;2022-08-21T10:47:59;4.25;;;1.75;;
19940;SDS011;10132;50.864;5.176;2022-08-21T10:50:08;8.55;;;2.10;;
19940;SDS011;10132;50.864;5.176;2022-08-21T10:52:25;6.80;;;1.77;;
19940;SDS011;10132;50.864;5.176;2022-08-21T10:54:37;7.90;;;2.17;;
19940;SDS011;10132;50.864;5.176;2022-08-21T10:56:47;10.27;;;2.33;;
19940;SDS011;10132;50.864;5.176;2022-08-21T10:59:07;8.70;;;2.03;;
19940;SDS011;10132;50.864;5.176;2022-08-21T11:01:24;8.68;;;1.92;;
19940;SDS011;10132;50.864;5.176;2022-08-21T11:03:29;5.18;;;1.85;;
19940;SDS011;10132;50.864;5.176;2022-08-21T11:05:38;7.13;;;1.95;;
19940;SDS011;10132;50.864;5.176;2022-08-21T11:07:47;7.88;;;1.98;;
19940;SDS011;10132;50.864;5.176;2022-08-21T11:09:53;6.20;;;1.88;;
19940;SDS011;10132;50.864;5.176;2022-08-21T11:11:58;10.95;;;2.17;;
19940;SDS011;10132;50.864;5.176;2022-08-21T11:14:08;5.45;;;1.80;;
19940;SDS011;10132;50.864;5.176;2022-08-21T11:16:19;6.45;;;1.70;;
19940;SDS011;10132;50.864;5.176;2022-08-21T11:18:28;4.80;;;2.05;;
19940;SDS011;10132;50.864;5.176;2022-08-21T11:20:34;6.03;;;1.80;;
19940;SDS011;10132;50.864;5.176;2022-08-21T11:22:46;6.68;;;1.98;;
19940;SDS011;10132;50.864;5.176;2022-08-21T11:24:52;6.78;;;1.80;;
19940;SDS011;10132;50.864;5.176;2022-08-21T11:26:59;6.00;;;1.80;;
19940;SDS011;10132;50.864;5.176;2022-08-21T11:29:08;7.53;;;1.90;;
19940;SDS011;10132;50.864;5.176;2022-08-21T11:31:17;5.07;;;1.60;;
19940;SDS011;10132;50.864;5.176;2022-08-21T11:33:36;5.88;;;2.00;;
19940;SDS011;10132;50.864;5.176;2022-08-21T11:35:53;6.07;;;1.83;;
19940;SDS011;10132;50.864;5.176;2022-08-21T11:38:09;7.32;;;2.17;;
19940;SDS011;10132;50.864;5.176;2022-08-21T11:40:26;5.53;;;1.80;;
19940;SDS011;10132;50.864;5.176;2022-08-21T11:42:42;6.78;;;2.00;;
19940;SDS011;10132;50.864;5.176;2022-08-21T11:44:52;8.82;;;2.33;;
19940;SDS011;10132;50.864;5.176;2022-08-21T11:47:04;6.75;;;1.92;;
19940;SDS011;10132;50.864;5.176;2022-08-21T11:52:08;8.05;;;2.08;;
19940;SDS011;10132;50.864;5.176;2022-08-21T11:54:19;7.28;;;1.63;;
19940;SDS011;10132;50.864;5.176;2022-08-21T11:56:28;7.82;;;1.90;;
19940;SDS011;10132;50.864;5.176;2022-08-21T11:58:35;6.47;;;2.15;;
19940;SDS011;10132;50.864;5.176;2022-08-21T12:00:41;6.82;;;1.92;;
19940;SDS011;10132;50.864;5.176;2022-08-21T12:02:48;5.78;;;1.83;;
19940;SDS011;10132;50.864;5.176;2022-08-21T12:04:54;9.75;;;1.95;;
19940;SDS011;10132;50.864;5.176;2022-08-21T12:07:09;9.80;;;2.30;;
19940;SDS011;10132;50.864;5.176;2022-08-21T12:09:29;7.50;;;2.25;;
19940;SDS011;10132;50.864;5.176;2022-08-21T12:11:45;6.90;;;1.85;;
19940;SDS011;10132;50.864;5.176;2022-08-21T12:13:53;7.55;;;2.08;;
19940;SDS011;10132;50.864;5.176;2022-08-21T12:16:04;6.88;;;2.10;;
19940;SDS011;10132;50.864;5.176;2022-08-21T12:18:20;7.88;;;2.35;;
19940;SDS011;10132;50.864;5.176;2022-08-21T12:20:36;7.75;;;2.20;;
19940;SDS011;10132;50.864;5.176;2022-08-21T12:22:47;7.20;;;2.28;;
19940;SDS011;10132;50.864;5.176;2022-08-21T12:25:02;5.43;;;1.92;;
19940;SDS011;10132;50.864;5.176;2022-08-21T12:27:18;8.60;;;2.00;;
19940;SDS011;10132;50.864;5.176;2022-08-21T12:29:26;7.72;;;2.15;;
19940;SDS011;10132;50.864;5.176;2022-08-21T12:31:31;8.05;;;2.00;;
19940;SDS011;10132;50.864;5.176;2022-08-21T12:33:34;6.43;;;1.95;;
19940;SDS011;10132;50.864;5.176;2022-08-21T12:35:40;6.00;;;2.22;;